createdAt,value
2023-01-04T00:01:16.079Z,94.49
2023-01-04T00:03:44.081Z,95.11
2023-01-04T00:06:14.039Z,95.80
2023-01-04T00:08:41.456Z,96.27
2023-01-04T00:11:20.689Z,95.91
2023-01-04T00:13:49.676Z,94.40
2023-01-04T00:16:21.962Z,94.14
2023-01-04T00:18:50.436Z,93.45
2023-01-04T00:21:22.798Z,93.45
2023-01-04T00:23:51.806Z,92.68
2023-01-04T00:26:25.707Z,92.60
2023-01-04T00:28:56.880Z,93.23
2023-01-04T00:31:24.890Z,93.38
2023-01-04T00:33:55.970Z,93.49
2023-01-04T00:36:23.729Z,93.46
2023-01-04T00:39:10.974Z,93.27
2023-01-04T00:42:00.596Z,93.19
2023-01-04T00:44:28.963Z,93.51
2023-01-04T00:46:56.469Z,93.44
2023-01-04T00:49:23.899Z,94.68
2023-01-04T00:51:51.264Z,95.21
2023-01-04T00:54:19.054Z,95.83
2023-01-04T00:56:45.977Z,95.71
2023-01-04T00:59:14.638Z,96.10
2023-01-04T01:01:42.394Z,96.46
2023-01-04T01:04:14.493Z,96.82
2023-01-04T01:06:42.217Z,96.91
2023-01-04T01:09:09.640Z,97.24
2023-01-04T01:11:38.631Z,96.60
2023-01-04T01:14:06.317Z,96.86
2023-01-04T01:19:23.316Z,98.15
2023-01-04T01:21:50.903Z,98.24
2023-01-04T01:24:19.770Z,97.58
2023-01-04T01:26:46.916Z,97.23
2023-01-04T01:29:14.002Z,97.98
2023-01-04T01:31:41.776Z,97.40
2023-01-04T01:34:09.318Z,97.19
2023-01-04T01:36:36.916Z,97.05
2023-01-04T01:39:04.994Z,97.58
2023-01-04T01:41:34.239Z,97.22
2023-01-04T01:44:42.162Z,96.99
2023-01-04T01:47:24.664Z,96.22
2023-01-04T01:50:01.205Z,96.44
2023-01-04T01:52:32.942Z,96.35
2023-01-04T01:55:04.562Z,95.86
2023-01-04T01:57:37.491Z,96.62
2023-01-04T02:00:09.044Z,95.75
2023-01-04T02:02:36.700Z,95.68
2023-01-04T02:05:03.964Z,96.13
2023-01-04T02:07:33.436Z,95.92
2023-01-04T02:10:18.893Z,96.05
2023-01-04T02:13:05.536Z,95.65
2023-01-04T02:16:03.114Z,95.20
2023-01-04T02:22:39.266Z,95.33
2023-01-04T02:26:13.905Z,95.66
2023-01-04T02:29:02.504Z,95.60
2023-01-04T02:31:48.612Z,95.92
2023-01-04T02:34:35.597Z,95.90
2023-01-04T02:37:14.170Z,96.36
2023-01-04T02:39:50.262Z,96.06
2023-01-04T02:42:49.170Z,95.73
2023-01-04T02:45:20.748Z,95.95
2023-01-04T02:48:06.372Z,95.99
2023-01-04T02:50:37.176Z,95.58
2023-01-04T02:53:19.088Z,95.56
2023-01-04T02:55:55.873Z,95.73
2023-01-04T02:58:36.576Z,95.97
2023-01-04T03:01:51.692Z,96.17
2023-01-04T03:04:54.564Z,97.10
2023-01-04T03:07:32.193Z,97.30
2023-01-04T03:10:19.157Z,98.26
2023-01-04T03:12:55.001Z,98.01
2023-01-04T03:15:27.009Z,98.08
2023-01-04T03:17:58.506Z,98.13
2023-01-04T03:20:30.204Z,97.95
2023-01-04T03:23:24.799Z,97.47
2023-01-04T03:26:38.125Z,97.45
2023-01-04T03:29:49.868Z,97.63
2023-01-04T03:33:05.178Z,97.97
2023-01-04T03:36:12.422Z,97.75
2023-01-04T03:39:15.502Z,98.29
2023-01-04T03:42:10.531Z,98.94
2023-01-04T03:45:10.403Z,98.95
2023-01-04T03:48:19.118Z,99.14
2023-01-04T03:50:51.899Z,99.25
2023-01-04T03:53:20.482Z,99.87
2023-01-04T03:55:49.076Z,99.87
2023-01-04T03:58:16.351Z,100.00
2023-01-04T04:00:43.628Z,99.69
2023-01-04T04:03:10.761Z,99.71
2023-01-04T04:06:02.627Z,99.69
2023-01-04T04:08:29.716Z,99.58
2023-01-04T04:11:19.712Z,99.23
2023-01-04T04:13:48.354Z,99.42
2023-01-04T04:16:15.784Z,99.45
2023-01-04T04:18:42.999Z,98.95
2023-01-04T04:21:10.045Z,98.85
2023-01-04T04:23:37.022Z,98.50
2023-01-04T04:26:03.997Z,98.38
2023-01-04T04:28:31.090Z,98.33
2023-01-04T04:30:58.092Z,98.43
2023-01-04T04:33:25.052Z,98.48
2023-01-04T04:35:53.871Z,98.65
2023-01-04T04:38:21.451Z,98.52
2023-01-04T04:41:07.120Z,98.55
2023-01-04T04:43:35.036Z,98.60
2023-01-04T04:46:02.404Z,98.55
2023-01-04T04:48:29.410Z,98.65
2023-01-04T04:50:56.419Z,98.85
2023-01-04T04:53:23.436Z,99.32
2023-01-04T04:55:54.602Z,98.91
2023-01-04T04:58:21.999Z,98.88
2023-01-04T05:00:49.749Z,98.79
2023-01-04T05:03:16.895Z,98.77
2023-01-04T05:05:44.906Z,98.76
2023-01-04T05:08:11.897Z,98.39
2023-01-04T05:10:39.143Z,98.99
2023-01-04T05:13:09.279Z,98.30
2023-01-04T05:15:39.763Z,98.71
2023-01-04T05:18:09.081Z,99.05
2023-01-04T05:20:36.357Z,99.41
2023-01-04T05:23:03.464Z,99.10
2023-01-04T05:25:30.407Z,99.33
2023-01-04T05:27:57.408Z,99.29
2023-01-04T05:30:43.243Z,99.35
2023-01-04T05:33:10.812Z,99.53
2023-01-04T05:35:37.869Z,99.09
2023-01-04T05:38:05.059Z,99.11
2023-01-04T05:40:32.433Z,99.28
2023-01-04T05:42:59.405Z,98.94
2023-01-04T05:45:27.183Z,99.18
2023-01-04T05:47:54.828Z,99.17
2023-01-04T05:50:23.919Z,98.59
2023-01-04T05:52:51.344Z,98.26
2023-01-04T05:55:18.844Z,98.50
2023-01-04T05:57:46.235Z,97.46
2023-01-04T06:00:14.594Z,98.38
2023-01-04T06:02:42.802Z,97.98
2023-01-04T06:05:11.712Z,97.41
2023-01-04T06:07:39.966Z,97.74
2023-01-04T06:10:12.607Z,97.46
2023-01-04T06:12:40.502Z,97.41
2023-01-04T06:15:08.359Z,97.64
2023-01-04T06:17:36.047Z,97.27
2023-01-04T06:20:03.720Z,97.80
2023-01-04T06:22:30.762Z,97.85
2023-01-04T06:24:58.328Z,97.67
2023-01-04T06:27:25.686Z,98.20
2023-01-04T06:29:53.314Z,98.22
2023-01-04T06:32:20.227Z,97.99
2023-01-04T06:34:47.128Z,98.22
2023-01-04T06:37:14.069Z,98.81
2023-01-04T06:39:41.067Z,98.62
2023-01-04T06:42:27.901Z,98.45
2023-01-04T06:44:54.943Z,98.61
2023-01-04T06:47:21.871Z,98.53
2023-01-04T06:49:49.079Z,98.65
2023-01-04T06:52:16.020Z,98.37
2023-01-04T06:54:42.966Z,98.36
2023-01-04T06:57:09.851Z,97.84
2023-01-04T06:59:36.828Z,98.24
2023-01-04T07:02:04.163Z,98.30
2023-01-04T07:04:31.199Z,98.64
2023-01-04T07:06:58.237Z,99.02
2023-01-04T07:09:25.173Z,98.79
2023-01-04T07:11:52.136Z,99.38
2023-01-04T07:14:19.206Z,100.00
2023-01-04T07:16:46.176Z,99.88
2023-01-04T07:19:13.089Z,100.00
2023-01-04T07:21:40.020Z,100.00
2023-01-04T07:24:07.012Z,100.00
2023-01-04T07:26:34.964Z,100.00
2023-01-04T07:29:17.522Z,100.00
2023-01-04T07:31:49.367Z,100.00
2023-01-04T07:34:17.560Z,100.00
2023-01-04T07:36:45.202Z,100.00
2023-01-04T07:39:12.878Z,100.00
2023-01-04T07:41:40.917Z,100.00
2023-01-04T07:44:09.156Z,100.00
2023-01-04T07:46:36.992Z,100.00
2023-01-04T07:49:04.678Z,100.00
2023-01-04T07:51:32.138Z,100.00
2023-01-04T07:53:59.400Z,100.00
2023-01-04T07:56:26.389Z,100.00
2023-01-04T07:58:57.277Z,99.93
2023-01-04T08:01:25.625Z,99.51
2023-01-04T08:03:53.863Z,99.19
2023-01-04T08:06:21.944Z,99.85
2023-01-04T08:08:49.565Z,99.63
2023-01-04T08:11:18.649Z,99.62
2023-01-04T08:13:45.946Z,100.00
2023-01-04T08:16:21.181Z,100.00
2023-01-04T08:18:49.420Z,99.38
2023-01-04T08:21:16.414Z,99.94
2023-01-04T08:23:43.396Z,98.83
2023-01-04T08:26:13.148Z,99.48
2023-01-04T08:28:40.971Z,98.80
2023-01-04T08:31:12.439Z,98.02
2023-01-04T08:33:40.924Z,97.57
2023-01-04T08:36:25.948Z,97.19
2023-01-04T08:38:59.996Z,96.49
2023-01-04T08:44:14.757Z,95.32
2023-01-04T08:46:41.898Z,95.57
2023-01-04T08:49:08.920Z,95.26
2023-01-04T08:51:36.070Z,95.00
2023-01-04T08:54:03.742Z,95.63
2023-01-04T08:56:34.865Z,94.78
2023-01-04T08:59:02.272Z,94.50
2023-01-04T09:01:30.453Z,94.33
2023-01-04T09:03:58.351Z,93.67
2023-01-04T09:06:25.350Z,92.58
2023-01-04T09:08:53.957Z,92.86
2023-01-04T09:11:22.670Z,91.77
2023-01-04T09:13:54.176Z,91.37
2023-01-04T09:16:21.247Z,90.60
2023-01-04T09:18:48.197Z,90.57
2023-01-04T09:21:19.639Z,90.57
2023-01-04T09:23:48.249Z,90.10
2023-01-04T09:26:26.166Z,88.88
2023-01-04T09:28:55.251Z,88.32
2023-01-04T09:31:25.531Z,88.19
2023-01-04T09:36:39.923Z,87.74
2023-01-04T09:39:07.196Z,87.46
2023-01-04T09:41:59.150Z,87.55
2023-01-04T09:48:00.381Z,86.02
2023-01-04T09:50:54.861Z,85.55
2023-01-04T09:53:25.106Z,85.07
2023-01-04T09:55:54.896Z,84.68
2023-01-04T09:58:27.440Z,85.18
2023-01-04T10:01:04.476Z,84.54
2023-01-04T10:03:39.849Z,84.43
2023-01-04T10:06:12.145Z,84.08
2023-01-04T10:08:42.356Z,83.99
2023-01-04T10:11:38.259Z,81.69
2023-01-04T10:14:15.062Z,80.72
2023-01-04T10:17:12.195Z,80.14
2023-01-04T10:23:06.219Z,81.05
2023-01-04T10:26:01.416Z,79.55
2023-01-04T10:28:54.317Z,80.39
2023-01-04T10:31:43.446Z,79.57
2023-01-04T10:34:25.434Z,78.96
2023-01-04T10:37:00.409Z,78.91
2023-01-04T10:39:33.370Z,79.51
2023-01-04T10:42:20.005Z,79.23
2023-01-04T10:44:52.739Z,78.29
2023-01-04T10:47:46.126Z,77.63
2023-01-04T10:50:34.592Z,77.25
2023-01-04T10:53:20.240Z,76.74
2023-01-04T10:56:23.568Z,76.93
2023-01-04T10:59:01.146Z,75.54
2023-01-04T11:01:40.208Z,74.75
2023-01-04T11:04:37.627Z,73.09
2023-01-04T11:07:15.970Z,73.60
2023-01-04T11:09:58.514Z,73.50
2023-01-04T11:12:26.831Z,72.47
2023-01-04T11:14:55.246Z,72.09
2023-01-04T11:17:24.771Z,72.50
2023-01-04T11:19:51.813Z,70.22
2023-01-04T11:22:37.163Z,71.52
2023-01-04T11:28:03.459Z,70.48
2023-01-04T11:30:45.874Z,70.85
2023-01-04T11:33:21.865Z,70.45
2023-01-04T11:35:51.859Z,70.57
2023-01-04T11:38:24.534Z,70.34
2023-01-04T11:41:03.093Z,70.77
2023-01-04T11:43:32.859Z,69.41
2023-01-04T11:46:21.350Z,70.47
2023-01-04T11:48:48.989Z,69.63
2023-01-04T11:51:19.483Z,69.87
2023-01-04T11:53:56.488Z,69.09
2023-01-04T11:56:26.325Z,69.17
2023-01-04T11:59:24.569Z,69.58
2023-01-04T12:02:10.241Z,69.15
2023-01-04T12:04:37.298Z,69.34
2023-01-04T12:07:15.746Z,68.76
2023-01-04T12:09:42.771Z,69.36
2023-01-04T12:12:15.996Z,70.03
2023-01-04T12:14:53.913Z,68.82
2023-01-04T12:17:30.793Z,69.14
2023-01-04T12:20:18.806Z,69.35
2023-01-04T12:22:46.473Z,68.33
2023-01-04T12:25:38.748Z,69.06
2023-01-04T12:28:07.378Z,69.29
2023-01-04T12:30:45.956Z,69.30
2023-01-04T12:33:31.056Z,70.15
2023-01-04T12:36:08.263Z,69.53
2023-01-04T12:39:12.704Z,70.27
2023-01-04T12:41:40.600Z,69.80
2023-01-04T12:44:52.135Z,70.14
2023-01-04T12:47:37.739Z,70.14
2023-01-04T12:50:14.781Z,69.92
2023-01-04T12:53:02.371Z,70.31
2023-01-04T12:55:32.033Z,71.17
2023-01-04T12:57:59.512Z,70.20
2023-01-04T13:00:52.872Z,70.39
2023-01-04T13:03:22.115Z,70.42
2023-01-04T13:05:57.509Z,70.27
2023-01-04T13:08:25.075Z,69.90
2023-01-04T13:10:56.510Z,69.33
2023-01-04T13:13:29.350Z,68.76
2023-01-04T13:15:59.121Z,68.69
2023-01-04T13:18:47.823Z,68.81
2023-01-04T13:21:38.502Z,67.76
2023-01-04T13:24:19.199Z,67.98
2023-01-04T13:26:48.555Z,67.42
2023-01-04T13:29:26.535Z,67.40
2023-01-04T13:32:24.382Z,66.51
2023-01-04T13:35:15.728Z,67.44
2023-01-04T13:37:51.214Z,66.50
2023-01-04T13:40:30.676Z,66.60
2023-01-04T13:43:15.677Z,66.66
2023-01-04T13:46:05.527Z,67.05
2023-01-04T13:48:37.946Z,66.75
2023-01-04T13:51:24.052Z,67.41
2023-01-04T13:53:59.081Z,66.84
2023-01-04T13:56:30.658Z,66.75
2023-01-04T13:58:58.084Z,67.64
2023-01-04T14:01:25.052Z,67.29
2023-01-04T14:03:55.030Z,67.52
2023-01-04T14:06:27.864Z,67.43
2023-01-04T14:09:09.926Z,67.73
2023-01-04T14:12:02.098Z,68.19
2023-01-04T14:14:49.135Z,68.26
2023-01-04T14:17:19.580Z,67.82
2023-01-04T14:19:48.049Z,67.88
2023-01-04T14:22:21.310Z,68.19
2023-01-04T14:27:38.263Z,68.44
2023-01-04T14:30:20.079Z,68.61
2023-01-04T14:33:02.189Z,69.17
2023-01-04T14:35:30.637Z,68.51
2023-01-04T14:38:06.654Z,69.17
2023-01-04T14:40:35.845Z,69.25
2023-01-04T14:43:02.843Z,68.97
2023-01-04T14:45:29.783Z,69.42
2023-01-04T14:47:56.697Z,69.77
2023-01-04T14:50:23.645Z,69.55
2023-01-04T14:52:55.631Z,68.95
2023-01-04T14:55:24.976Z,69.70
2023-01-04T14:57:51.919Z,69.10
2023-01-04T15:00:19.808Z,69.19
2023-01-04T15:02:50.797Z,69.64
2023-01-04T15:05:20.705Z,69.87
2023-01-04T15:07:48.378Z,69.89
2023-01-04T15:10:29.560Z,70.27
2023-01-04T15:13:03.854Z,70.02
2023-01-04T15:15:33.701Z,71.20
2023-01-04T15:18:00.650Z,71.44
2023-01-04T15:20:27.665Z,72.46
2023-01-04T15:22:54.676Z,72.36
2023-01-04T15:25:24.310Z,73.42
2023-01-04T15:27:51.838Z,73.95
2023-01-04T15:30:18.977Z,75.29
2023-01-04T15:32:45.881Z,75.57
2023-01-04T15:35:17.190Z,76.55
2023-01-04T15:37:45.347Z,76.73
2023-01-04T15:40:15.214Z,78.15
2023-01-04T15:43:00.778Z,78.61
2023-01-04T15:45:39.265Z,80.20
2023-01-04T15:48:08.494Z,80.72
2023-01-04T15:50:37.838Z,81.58
2023-01-04T15:53:06.574Z,81.51
2023-01-04T15:55:36.711Z,82.34
2023-01-04T15:58:05.164Z,82.71
2023-01-04T16:00:33.205Z,83.13
2023-01-04T16:03:00.220Z,84.46
2023-01-04T16:05:27.201Z,84.56
2023-01-04T16:07:54.063Z,84.94
2023-01-04T16:10:21.229Z,85.76
2023-01-04T16:12:54.696Z,86.03
2023-01-04T16:15:23.972Z,87.10
2023-01-04T16:17:51.033Z,86.99
2023-01-04T16:20:18.817Z,87.65
2023-01-04T16:22:46.114Z,87.85
2023-01-04T16:25:13.503Z,88.14
2023-01-04T16:27:40.893Z,88.09
2023-01-04T16:30:12.602Z,88.89
2023-01-04T16:32:43.734Z,88.62
2023-01-04T16:35:11.352Z,88.72
2023-01-04T16:37:39.141Z,88.66
2023-01-04T16:40:08.230Z,89.27
2023-01-04T16:42:37.082Z,88.92
2023-01-04T16:45:04.417Z,89.88
2023-01-04T16:47:39.425Z,89.49
2023-01-04T16:50:07.410Z,89.42
2023-01-04T16:52:34.399Z,88.51
2023-01-04T16:55:01.341Z,87.99
2023-01-04T16:57:28.290Z,88.89
2023-01-04T16:59:55.263Z,88.48
2023-01-04T17:02:24.721Z,89.19
2023-01-04T17:04:57.226Z,89.09
2023-01-04T17:07:24.226Z,88.79
2023-01-04T17:09:51.220Z,89.20
2023-01-04T17:12:46.143Z,89.09
2023-01-04T17:17:53.005Z,88.89
2023-01-04T17:20:19.905Z,89.36
2023-01-04T17:22:46.827Z,89.17
2023-01-04T17:25:16.051Z,89.41
2023-01-04T17:27:44.451Z,89.95
2023-01-04T17:30:11.882Z,89.50
2023-01-04T17:32:38.850Z,89.20
2023-01-04T17:35:05.898Z,89.28
2023-01-04T17:37:33.178Z,89.59
2023-01-04T17:40:00.148Z,88.94
2023-01-04T17:42:27.120Z,88.96
2023-01-04T17:44:54.078Z,88.57
2023-01-04T17:47:21.028Z,88.20
2023-01-04T17:49:47.912Z,88.93
2023-01-04T17:52:21.076Z,87.97
2023-01-04T17:54:51.443Z,88.22
2023-01-04T17:57:18.374Z,88.00
2023-01-04T17:59:45.275Z,88.13
2023-01-04T18:02:12.392Z,87.41
2023-01-04T18:04:42.199Z,87.72
2023-01-04T18:07:09.099Z,87.54
2023-01-04T18:09:36.037Z,87.57
2023-01-04T18:12:02.975Z,86.13
2023-01-04T18:14:29.851Z,85.69
2023-01-04T18:16:57.753Z,84.99
2023-01-04T18:19:27.794Z,84.24
2023-01-04T18:21:55.085Z,83.30
2023-01-04T18:24:39.048Z,82.87
2023-01-04T18:27:25.474Z,83.32
2023-01-04T18:29:55.139Z,83.15
2023-01-04T18:32:23.330Z,82.72
2023-01-04T18:34:50.614Z,82.78
2023-01-04T18:37:19.068Z,82.45
2023-01-04T18:39:47.112Z,82.56
2023-01-04T18:42:14.183Z,82.49
2023-01-04T18:44:48.028Z,81.87
2023-01-04T18:47:18.080Z,82.24
2023-01-04T18:49:45.032Z,81.92
2023-01-04T18:52:12.042Z,81.42
2023-01-04T18:54:39.689Z,81.80
2023-01-04T18:57:06.677Z,81.50
2023-01-04T18:59:33.656Z,81.11
2023-01-04T19:02:03.877Z,81.25
2023-01-04T19:04:34.389Z,80.96
2023-01-04T19:07:02.096Z,80.49
2023-01-04T19:09:29.470Z,80.29
2023-01-04T19:11:56.344Z,80.77
2023-01-04T19:14:23.265Z,80.65
2023-01-04T19:16:50.252Z,79.97
2023-01-04T19:19:17.243Z,80.05
2023-01-04T19:21:44.186Z,80.02
2023-01-04T19:24:11.178Z,79.65
2023-01-04T19:26:38.795Z,80.04
2023-01-04T19:29:07.619Z,79.19
2023-01-04T19:31:35.363Z,79.86
2023-01-04T19:34:02.815Z,79.76
2023-01-04T19:36:29.848Z,79.14
2023-01-04T19:38:57.538Z,79.54
2023-01-04T19:41:33.427Z,79.22
2023-01-04T19:44:06.186Z,79.56
2023-01-04T19:46:33.344Z,79.58
2023-01-04T19:49:00.355Z,79.30
2023-01-04T19:51:30.161Z,79.17
2023-01-04T19:53:57.097Z,79.77
2023-01-04T19:56:24.065Z,79.66
2023-01-04T19:58:51.039Z,80.05
2023-01-04T20:01:23.299Z,80.06
2023-01-04T20:03:50.593Z,79.29
2023-01-04T20:06:18.147Z,79.77
2023-01-04T20:08:45.369Z,79.67
2023-01-04T20:11:13.052Z,79.30
2023-01-04T20:13:40.637Z,79.73
2023-01-04T20:16:08.132Z,79.27
2023-01-04T20:18:36.885Z,79.59
2023-01-04T20:21:13.020Z,79.71
2023-01-04T20:23:40.886Z,79.17
2023-01-04T20:26:12.797Z,79.85
2023-01-04T20:28:42.098Z,79.68
2023-01-04T20:31:11.506Z,79.72
2023-01-04T20:33:38.969Z,80.20
2023-01-04T20:36:12.553Z,79.14
2023-01-04T20:38:41.674Z,79.72
2023-01-04T20:41:12.429Z,79.42
2023-01-04T20:43:39.801Z,79.57
2023-01-04T20:46:12.972Z,79.77
2023-01-04T20:48:42.999Z,80.00
2023-01-04T20:51:18.624Z,79.71
2023-01-04T20:53:46.567Z,79.49
2023-01-04T20:56:15.786Z,79.87
2023-01-04T20:58:46.691Z,79.43
2023-01-04T21:01:14.660Z,80.04
2023-01-04T21:03:42.340Z,79.93
2023-01-04T21:06:12.136Z,80.00
2023-01-04T21:08:41.499Z,79.67
2023-01-04T21:11:10.013Z,79.90
2023-01-04T21:13:41.699Z,79.84
2023-01-04T21:16:09.875Z,80.16
2023-01-04T21:18:38.374Z,79.82
2023-01-04T21:21:10.051Z,80.28
2023-01-04T21:23:38.425Z,81.73
2023-01-04T21:26:07.202Z,82.73
2023-01-04T21:28:34.640Z,81.81
2023-01-04T21:31:01.601Z,82.34
2023-01-04T21:33:28.610Z,82.43
2023-01-04T21:35:55.550Z,82.21
2023-01-04T21:38:22.464Z,82.81
2023-01-04T21:40:49.364Z,83.16
2023-01-04T21:43:17.756Z,82.90
2023-01-04T21:45:45.063Z,82.50
2023-01-04T21:48:11.995Z,82.71
2023-01-04T21:50:39.033Z,82.92
2023-01-04T21:53:05.941Z,82.57
2023-01-04T21:55:35.152Z,82.72
2023-01-04T21:58:05.314Z,82.75
2023-01-04T22:00:33.250Z,83.04
2023-01-04T22:03:00.267Z,82.34
2023-01-04T22:05:27.270Z,82.50
2023-01-04T22:07:54.213Z,83.68
2023-01-04T22:10:22.431Z,85.30
2023-01-04T22:12:50.706Z,85.56
2023-01-04T22:15:17.682Z,85.90
2023-01-04T22:17:46.436Z,86.05
2023-01-04T22:20:13.391Z,86.11
2023-01-04T22:22:40.295Z,86.26
2023-01-04T22:25:07.498Z,85.65
2023-01-04T22:27:34.759Z,85.07
2023-01-04T22:30:02.308Z,85.26
2023-01-04T22:32:29.268Z,85.64
2023-01-04T22:34:56.295Z,84.79
2023-01-04T22:37:23.385Z,85.24
2023-01-04T22:39:50.331Z,84.86
2023-01-04T22:42:18.528Z,84.56
2023-01-04T22:44:45.456Z,84.52
2023-01-04T22:47:12.338Z,84.93
2023-01-04T22:49:39.213Z,85.14
2023-01-04T22:52:06.371Z,84.68
2023-01-04T22:54:33.428Z,84.88
2023-01-04T22:57:00.815Z,85.10
2023-01-04T22:59:27.815Z,84.73
2023-01-04T23:01:54.752Z,84.70
2023-01-04T23:04:23.042Z,85.54
2023-01-04T23:06:51.506Z,85.46
2023-01-04T23:09:19.215Z,86.14
2023-01-04T23:11:46.325Z,85.35
2023-01-04T23:14:16.397Z,86.32
2023-01-04T23:16:46.611Z,85.84
2023-01-04T23:19:14.392Z,86.09
2023-01-04T23:21:41.596Z,86.19
2023-01-04T23:24:13.549Z,86.50
2023-01-04T23:26:41.661Z,87.45
2023-01-04T23:29:08.694Z,86.92
2023-01-04T23:31:35.655Z,87.27
2023-01-04T23:34:04.887Z,87.55
2023-01-04T23:36:35.918Z,87.19
2023-01-04T23:39:06.946Z,87.31
2023-01-04T23:41:47.037Z,87.32
2023-01-04T23:46:54.324Z,87.60
2023-01-04T23:49:22.189Z,88.09
2023-01-04T23:51:49.802Z,87.54
2023-01-04T23:54:17.166Z,87.67
2023-01-04T23:56:44.279Z,87.37
2023-01-04T23:59:11.926Z,87.67
